createdAt,value
2022-11-22T00:00:01.278Z,97.33
2022-11-22T00:01:01.055Z,97.64
2022-11-22T00:02:01.185Z,97.44
2022-11-22T00:03:01.106Z,98.05
2022-11-22T00:04:01.039Z,97.69
2022-11-22T00:05:01.222Z,97.74
2022-11-22T00:06:01.023Z,97.64
2022-11-22T00:07:01.155Z,97.23
2022-11-22T00:08:01.079Z,97.85
2022-11-22T00:09:01.021Z,98.10
2022-11-22T00:10:01.012Z,97.89
2022-11-22T00:11:00.950Z,98.10
2022-11-22T00:12:01.049Z,97.89
2022-11-22T00:13:00.959Z,97.99
2022-11-22T00:14:00.934Z,98.04
2022-11-22T00:15:00.947Z,98.04
2022-11-22T00:16:00.909Z,98.35
2022-11-22T00:17:01.150Z,98.55
2022-11-22T00:18:00.925Z,98.45
2022-11-22T00:19:00.871Z,98.55
2022-11-22T00:20:00.901Z,98.76
2022-11-22T00:21:01.389Z,98.80
2022-11-22T00:22:00.861Z,98.70
2022-11-22T00:23:00.829Z,98.91
2022-11-22T00:24:00.887Z,98.50
2022-11-22T00:25:01.037Z,98.45
2022-11-22T00:26:00.802Z,98.86
2022-11-22T00:27:00.825Z,98.35
2022-11-22T00:28:00.881Z,98.04
2022-11-22T00:29:00.765Z,98.14
2022-11-22T00:30:00.794Z,98.25
2022-11-22T00:31:00.742Z,98.25
2022-11-22T00:32:00.749Z,98.25
2022-11-22T00:33:00.719Z,98.04
2022-11-22T00:34:00.762Z,98.04
2022-11-22T00:35:00.746Z,98.14
2022-11-22T00:36:00.710Z,97.83
2022-11-22T00:37:00.707Z,98.04
2022-11-22T00:38:00.668Z,97.58
2022-11-22T00:39:00.651Z,97.73
2022-11-22T00:40:00.664Z,97.73
2022-11-22T00:41:00.697Z,97.99
2022-11-22T00:42:00.697Z,97.83
2022-11-22T00:43:00.698Z,98.04
2022-11-22T00:44:00.799Z,97.94
2022-11-22T00:45:00.584Z,97.94
2022-11-22T00:46:00.575Z,98.25
2022-11-22T00:47:00.805Z,98.35
2022-11-22T00:48:00.571Z,97.94
2022-11-22T00:49:00.768Z,98.04
2022-11-22T00:50:00.594Z,98.04
2022-11-22T00:51:00.641Z,97.83
2022-11-22T00:52:00.594Z,98.35
2022-11-22T00:53:00.571Z,97.73
2022-11-22T00:54:00.541Z,98.14
2022-11-22T00:55:00.485Z,97.94
2022-11-22T00:56:00.553Z,97.73
2022-11-22T00:57:00.525Z,97.94
2022-11-22T00:58:00.495Z,97.73
2022-11-22T00:59:00.510Z,98.25
2022-11-22T01:00:00.445Z,97.73
2022-11-22T01:01:00.523Z,97.58
2022-11-22T01:02:00.441Z,97.48
2022-11-22T01:03:00.487Z,97.38
2022-11-22T01:04:00.658Z,97.79
2022-11-22T01:05:00.373Z,97.94
2022-11-22T01:06:00.375Z,97.73
2022-11-22T01:07:00.457Z,97.73
2022-11-22T01:08:00.367Z,98.14
2022-11-22T01:09:00.369Z,97.42
2022-11-22T01:10:00.399Z,97.73
2022-11-22T01:11:00.428Z,97.94
2022-11-22T01:12:00.389Z,97.53
2022-11-22T01:13:00.379Z,97.73
2022-11-22T01:14:00.291Z,97.53
2022-11-22T01:15:00.413Z,97.32
2022-11-22T01:16:00.318Z,97.73
2022-11-22T01:17:00.390Z,97.02
2022-11-22T01:18:00.273Z,96.70
2022-11-22T01:19:00.416Z,97.02
2022-11-22T01:20:00.316Z,96.66
2022-11-22T01:21:00.209Z,97.12
2022-11-22T01:22:00.274Z,97.22
2022-11-22T01:23:00.229Z,96.81
2022-11-22T01:24:00.191Z,96.45
2022-11-22T01:25:00.187Z,97.12
2022-11-22T01:26:00.592Z,96.45
2022-11-22T01:27:00.198Z,96.50
2022-11-22T01:28:00.162Z,96.66
2022-11-22T01:29:00.173Z,96.45
2022-11-22T01:30:00.177Z,96.35
2022-11-22T01:31:00.165Z,96.70
2022-11-22T01:32:00.152Z,96.70
2022-11-22T01:33:00.148Z,96.97
2022-11-22T01:34:00.157Z,96.91
2022-11-22T01:35:00.062Z,97.02
2022-11-22T01:36:00.051Z,96.30
2022-11-22T01:37:00.403Z,96.60
2022-11-22T01:38:00.047Z,96.81
2022-11-22T01:39:00.021Z,96.40
2022-11-22T01:40:00.037Z,96.66
2022-11-22T01:41:00.003Z,96.70
2022-11-22T01:42:00.096Z,96.40
2022-11-22T01:43:00.102Z,96.70
2022-11-22T01:43:59.985Z,96.50
2022-11-22T01:45:00.136Z,96.50
2022-11-22T01:46:00.149Z,96.50
2022-11-22T01:46:59.998Z,96.40
2022-11-22T01:47:59.926Z,96.30
2022-11-22T01:48:59.957Z,95.27
2022-11-22T01:50:00.149Z,95.37
2022-11-22T01:50:59.887Z,96.70
2022-11-22T01:51:59.903Z,96.50
2022-11-22T01:52:59.900Z,96.60
2022-11-22T01:53:59.939Z,96.81
2022-11-22T01:54:59.863Z,96.60
2022-11-22T01:55:59.894Z,96.50
2022-11-22T01:56:59.857Z,95.47
2022-11-22T01:57:59.813Z,95.89
2022-11-22T01:58:59.886Z,95.37
2022-11-22T01:59:59.807Z,95.98
2022-11-22T02:00:59.868Z,95.78
2022-11-22T02:01:59.888Z,95.89
2022-11-22T02:02:59.891Z,96.40
2022-11-22T02:03:59.768Z,96.40
2022-11-22T02:04:59.767Z,96.55
2022-11-22T02:05:59.741Z,96.30
2022-11-22T02:06:59.881Z,95.89
2022-11-22T02:07:59.751Z,96.60
2022-11-22T02:08:59.749Z,95.78
2022-11-22T02:09:59.698Z,95.89
2022-11-22T02:10:59.747Z,96.30
2022-11-22T02:11:59.701Z,96.30
2022-11-22T02:12:59.745Z,96.85
2022-11-22T02:13:59.739Z,96.60
2022-11-22T02:14:59.705Z,97.12
2022-11-22T02:15:59.752Z,97.06
2022-11-22T02:17:00.065Z,97.06
2022-11-22T02:17:59.608Z,96.60
2022-11-22T02:18:59.600Z,96.44
2022-11-22T02:19:59.639Z,96.65
2022-11-22T02:20:59.611Z,96.85
2022-11-22T02:21:59.661Z,96.65
2022-11-22T02:22:59.570Z,96.75
2022-11-22T02:23:59.576Z,96.23
2022-11-22T02:24:59.545Z,96.75
2022-11-22T02:25:59.536Z,97.06
2022-11-22T02:26:59.534Z,97.16
2022-11-22T02:27:59.557Z,96.95
2022-11-22T02:28:59.544Z,97.06
2022-11-22T02:29:59.512Z,97.00
2022-11-22T02:30:59.468Z,97.31
2022-11-22T02:31:59.542Z,97.06
2022-11-22T02:32:59.461Z,97.31
2022-11-22T02:34:01.698Z,97.82
2022-11-22T02:34:59.475Z,97.82
2022-11-22T02:35:59.467Z,97.52
2022-11-22T02:36:59.459Z,98.33
2022-11-22T02:37:59.402Z,97.92
2022-11-22T02:38:59.411Z,98.07
2022-11-22T02:39:59.398Z,97.82
2022-11-22T02:40:59.435Z,97.87
2022-11-22T02:41:59.371Z,97.87
2022-11-22T02:42:59.351Z,98.28
2022-11-22T02:43:59.453Z,97.66
2022-11-22T02:44:59.385Z,98.07
2022-11-22T02:45:59.349Z,97.82
2022-11-22T02:46:59.341Z,97.97
2022-11-22T02:47:59.307Z,98.07
2022-11-22T02:48:59.299Z,97.92
2022-11-22T02:49:59.265Z,97.52
2022-11-22T02:50:59.255Z,98.13
2022-11-22T02:51:59.290Z,97.82
2022-11-22T02:52:59.244Z,97.62
2022-11-22T02:53:59.255Z,97.87
2022-11-22T02:54:59.247Z,97.82
2022-11-22T02:55:59.245Z,98.18
2022-11-22T02:56:59.346Z,98.07
2022-11-22T02:57:59.213Z,97.87
2022-11-22T02:58:59.179Z,98.13
2022-11-22T02:59:59.268Z,97.97
2022-11-22T03:00:59.352Z,97.97
2022-11-22T03:02:03.252Z,97.31
2022-11-22T03:02:59.164Z,97.00
2022-11-22T03:03:59.162Z,96.90
2022-11-22T03:04:59.164Z,96.59
2022-11-22T03:05:59.186Z,96.69
2022-11-22T03:06:59.153Z,96.80
2022-11-22T03:07:59.165Z,96.69
2022-11-22T03:08:59.153Z,96.59
2022-11-22T03:09:59.059Z,97.10
2022-11-22T03:10:59.050Z,97.15
2022-11-22T03:11:59.132Z,97.15
2022-11-22T03:12:59.053Z,96.73
2022-11-22T03:13:59.101Z,96.64
2022-11-22T03:14:59.015Z,96.84
2022-11-22T03:15:58.985Z,96.02
2022-11-22T03:16:58.998Z,96.43
2022-11-22T03:17:59.089Z,97.15
2022-11-22T03:18:58.968Z,96.64
2022-11-22T03:19:59.000Z,96.02
2022-11-22T03:20:59.043Z,96.64
2022-11-22T03:21:59.325Z,96.64
2022-11-22T03:22:59.189Z,96.02
2022-11-22T03:23:58.942Z,95.77
2022-11-22T03:24:58.903Z,95.92
2022-11-22T03:25:59.007Z,95.77
2022-11-22T03:26:58.902Z,95.92
2022-11-22T03:27:58.937Z,96.39
2022-11-22T03:28:58.857Z,96.73
2022-11-22T03:29:58.860Z,96.53
2022-11-22T03:30:58.867Z,96.53
2022-11-22T03:31:58.888Z,96.64
2022-11-22T03:32:59.254Z,96.64
2022-11-22T03:33:58.887Z,96.43
2022-11-22T03:34:58.914Z,96.12
2022-11-22T03:35:58.788Z,96.73
2022-11-22T03:36:58.810Z,96.64
2022-11-22T03:37:58.800Z,96.53
2022-11-22T03:38:58.755Z,96.33
2022-11-22T03:39:58.792Z,96.73
2022-11-22T03:40:58.798Z,96.73
2022-11-22T03:41:58.808Z,96.12
2022-11-22T03:42:58.721Z,95.92
2022-11-22T03:43:58.719Z,96.22
2022-11-22T03:44:58.686Z,95.92
2022-11-22T03:45:58.695Z,95.56
2022-11-22T03:46:58.726Z,95.61
2022-11-22T03:47:58.701Z,95.92
2022-11-22T03:48:58.730Z,95.81
2022-11-22T03:49:58.626Z,96.12
2022-11-22T03:50:58.618Z,96.94
2022-11-22T03:51:58.690Z,96.43
2022-11-22T03:52:58.594Z,96.84
2022-11-22T03:53:58.612Z,96.99
2022-11-22T03:54:58.577Z,97.09
2022-11-22T03:55:58.559Z,96.99
2022-11-22T03:56:58.674Z,97.19
2022-11-22T03:57:58.573Z,96.78
2022-11-22T03:58:58.605Z,96.84
2022-11-22T03:59:58.597Z,96.99
2022-11-22T04:00:58.562Z,97.09
2022-11-22T04:01:58.613Z,97.09
2022-11-22T04:02:58.492Z,97.05
2022-11-22T04:03:58.600Z,96.78
2022-11-22T04:04:58.489Z,96.58
2022-11-22T04:05:58.498Z,96.33
2022-11-22T04:06:58.489Z,96.12
2022-11-22T04:07:58.495Z,96.53
2022-11-22T04:08:58.795Z,96.12
2022-11-22T04:09:58.596Z,96.47
2022-11-22T04:10:58.444Z,96.84
2022-11-22T04:11:58.610Z,96.99
2022-11-22T04:12:58.460Z,96.89
2022-11-22T04:13:58.426Z,96.68
2022-11-22T04:14:58.380Z,97.15
2022-11-22T04:15:58.377Z,96.43
2022-11-22T04:16:58.434Z,96.84
2022-11-22T04:17:58.388Z,96.53
2022-11-22T04:18:58.331Z,96.12
2022-11-22T04:19:58.369Z,95.92
2022-11-22T04:20:58.358Z,96.64
2022-11-22T04:21:58.315Z,97.15
2022-11-22T04:22:58.340Z,96.12
2022-11-22T04:23:58.287Z,96.43
2022-11-22T04:24:58.359Z,96.64
2022-11-22T04:25:58.262Z,96.94
2022-11-22T04:26:58.301Z,96.84
2022-11-22T04:27:58.245Z,96.64
2022-11-22T04:29:11.173Z,96.94
2022-11-22T04:29:59.206Z,96.94
2022-11-22T04:30:58.211Z,96.94
2022-11-22T04:31:58.268Z,96.94
2022-11-22T04:32:58.305Z,96.02
2022-11-22T04:33:58.246Z,95.81
2022-11-22T04:34:58.207Z,96.02
2022-11-22T04:35:58.153Z,96.02
2022-11-22T04:36:58.149Z,95.92
2022-11-22T04:37:58.159Z,95.92
2022-11-22T04:38:58.133Z,96.02
2022-11-22T04:39:58.147Z,96.02
2022-11-22T04:40:58.115Z,95.81
2022-11-22T04:41:58.111Z,95.92
2022-11-22T04:42:58.148Z,96.02
2022-11-22T04:43:58.065Z,95.92
2022-11-22T04:44:58.056Z,96.53
2022-11-22T04:45:58.033Z,96.68
2022-11-22T04:46:58.067Z,96.68
2022-11-22T04:47:58.070Z,96.68
2022-11-22T04:48:58.023Z,95.92
2022-11-22T04:49:58.016Z,96.02
2022-11-22T04:50:57.995Z,96.02
2022-11-22T04:51:57.984Z,95.71
2022-11-22T04:52:58.142Z,95.65
2022-11-22T04:53:58.014Z,95.96
2022-11-22T04:54:57.951Z,96.37
2022-11-22T04:55:57.957Z,96.64
2022-11-22T04:56:57.943Z,96.47
2022-11-22T04:58:00.308Z,96.89
2022-11-22T04:58:57.918Z,96.89
2022-11-22T04:59:57.916Z,96.89
2022-11-22T05:00:57.949Z,96.78
2022-11-22T05:01:57.891Z,97.30
2022-11-22T05:02:57.866Z,96.78
2022-11-22T05:03:57.868Z,97.30
2022-11-22T05:04:57.932Z,97.30
2022-11-22T05:05:57.851Z,97.34
2022-11-22T05:06:57.861Z,96.83
2022-11-22T05:07:57.790Z,97.19
2022-11-22T05:08:57.789Z,96.99
2022-11-22T05:09:57.792Z,96.89
2022-11-22T05:10:57.815Z,96.89
2022-11-22T05:11:57.811Z,96.99
2022-11-22T05:12:57.798Z,96.78
2022-11-22T05:13:57.735Z,96.68
2022-11-22T05:14:57.814Z,96.89
2022-11-22T05:15:57.746Z,97.25
2022-11-22T05:16:57.779Z,96.68
2022-11-22T05:17:57.707Z,96.33
2022-11-22T05:18:57.898Z,96.68
2022-11-22T05:19:57.717Z,96.73
2022-11-22T05:20:57.696Z,96.89
2022-11-22T05:21:57.709Z,96.78
2022-11-22T05:22:57.699Z,96.22
2022-11-22T05:23:57.645Z,96.84
2022-11-22T05:24:57.621Z,96.68
2022-11-22T05:25:57.623Z,96.99
2022-11-22T05:26:57.687Z,96.68
2022-11-22T05:27:57.667Z,96.99
2022-11-22T05:28:57.575Z,96.99
2022-11-22T05:29:57.616Z,97.09
2022-11-22T05:30:57.594Z,96.17
2022-11-22T05:31:57.556Z,95.61
2022-11-22T05:32:57.546Z,95.96
2022-11-22T05:33:57.605Z,96.06
2022-11-22T05:34:57.563Z,96.47
2022-11-22T05:35:57.540Z,96.58
2022-11-22T05:36:57.542Z,95.86
2022-11-22T05:37:57.564Z,95.96
2022-11-22T05:38:57.551Z,95.86
2022-11-22T05:39:57.607Z,95.55
2022-11-22T05:40:57.507Z,95.75
2022-11-22T05:41:57.531Z,95.96
2022-11-22T05:42:57.528Z,95.96
2022-11-22T05:43:57.498Z,95.86
2022-11-22T05:44:57.524Z,96.06
2022-11-22T05:45:57.460Z,95.86
2022-11-22T05:46:57.549Z,96.17
2022-11-22T05:47:57.385Z,96.27
2022-11-22T05:48:57.531Z,95.96
2022-11-22T05:49:57.379Z,96.11
2022-11-22T05:50:57.346Z,96.21
2022-11-22T05:51:57.348Z,96.52
2022-11-22T05:52:57.479Z,95.90
2022-11-22T05:53:57.330Z,95.39
2022-11-22T05:54:57.343Z,95.80
2022-11-22T05:55:57.280Z,95.03
2022-11-22T05:56:57.295Z,95.24
2022-11-22T05:57:57.347Z,95.45
2022-11-22T05:58:57.299Z,95.39
2022-11-22T05:59:57.262Z,95.45
2022-11-22T06:00:57.237Z,94.83
2022-11-22T06:01:57.317Z,94.83
2022-11-22T06:02:57.243Z,94.77
2022-11-22T06:03:57.265Z,94.77
2022-11-22T06:04:57.191Z,94.46
2022-11-22T06:05:57.182Z,94.21
2022-11-22T06:06:57.229Z,94.11
2022-11-22T06:07:57.208Z,94.01
2022-11-22T06:08:57.244Z,93.80
2022-11-22T06:09:57.152Z,94.01
2022-11-22T06:10:57.148Z,93.95
2022-11-22T06:11:57.190Z,93.74
2022-11-22T06:12:57.118Z,93.74
2022-11-22T06:13:57.210Z,94.15
2022-11-22T06:14:57.276Z,93.95
2022-11-22T06:15:57.086Z,93.54
2022-11-22T06:16:57.133Z,93.64
2022-11-22T06:17:57.074Z,93.74
2022-11-22T06:18:57.100Z,93.74
2022-11-22T06:20:00.121Z,93.23
2022-11-22T06:20:58.017Z,93.43
2022-11-22T06:21:57.142Z,93.43
2022-11-22T06:22:57.293Z,93.23
2022-11-22T06:23:57.069Z,92.71
2022-11-22T06:24:56.981Z,93.02
2022-11-22T06:25:56.995Z,93.18
2022-11-22T06:26:56.967Z,93.43
2022-11-22T06:27:56.992Z,93.43
2022-11-22T06:28:57.004Z,93.12
2022-11-22T06:29:56.944Z,93.64
2022-11-22T06:30:56.908Z,93.33
2022-11-22T06:32:03.126Z,93.54
2022-11-22T06:32:57.969Z,93.48
2022-11-22T06:33:56.974Z,93.12
2022-11-22T06:34:56.943Z,93.33
2022-11-22T06:35:56.936Z,93.02
2022-11-22T06:36:56.940Z,93.79
2022-11-22T06:38:00.631Z,93.06
2022-11-22T06:38:56.851Z,93.48
2022-11-22T06:39:56.806Z,93.27
2022-11-22T06:40:56.803Z,92.61
2022-11-22T06:41:56.805Z,92.96
2022-11-22T06:42:56.823Z,92.24
2022-11-22T06:43:56.807Z,92.30
2022-11-22T06:44:56.889Z,92.76
2022-11-22T06:45:56.837Z,92.76
2022-11-22T06:46:56.788Z,92.44
2022-11-22T06:47:56.794Z,92.24
2022-11-22T06:48:56.762Z,92.03
2022-11-22T06:49:56.775Z,92.24
2022-11-22T06:50:56.711Z,91.47
2022-11-22T06:51:56.888Z,91.68
2022-11-22T06:52:56.731Z,91.47
2022-11-22T06:53:56.697Z,92.44
2022-11-22T06:54:56.666Z,92.55
2022-11-22T06:56:01.158Z,92.03
2022-11-22T06:56:56.749Z,92.34
2022-11-22T06:57:56.690Z,92.34
2022-11-22T06:58:56.700Z,92.55
2022-11-22T06:59:56.623Z,92.34
2022-11-22T07:00:56.602Z,92.34
2022-11-22T07:01:59.009Z,92.55
2022-11-22T07:02:57.605Z,91.93
2022-11-22T07:03:56.585Z,92.03
2022-11-22T07:05:23.940Z,92.03
2022-11-22T07:05:57.537Z,92.14
2022-11-22T07:06:56.601Z,92.03
2022-11-22T07:08:02.839Z,91.93
2022-11-22T07:08:57.545Z,91.72
2022-11-22T07:09:56.803Z,91.72
2022-11-22T07:10:56.503Z,91.93
2022-11-22T07:11:56.527Z,92.03
2022-11-22T07:12:56.472Z,92.14
2022-11-22T07:13:59.211Z,92.44
2022-11-22T07:14:57.478Z,92.44
2022-11-22T07:15:56.472Z,92.03
2022-11-22T07:16:56.435Z,91.93
2022-11-22T07:17:56.422Z,91.83
2022-11-22T07:18:56.482Z,91.93
2022-11-22T07:19:56.419Z,91.62
2022-11-22T07:20:56.376Z,91.52
2022-11-22T07:21:56.390Z,91.52
2022-11-22T07:22:56.354Z,91.72
2022-11-22T07:23:56.339Z,91.62
2022-11-22T07:24:56.466Z,91.93
2022-11-22T07:25:56.355Z,92.44
2022-11-22T07:26:56.391Z,92.14
2022-11-22T07:27:56.388Z,92.14
2022-11-22T07:28:56.401Z,91.93
2022-11-22T07:29:56.287Z,92.14
2022-11-22T07:30:56.340Z,91.52
2022-11-22T07:31:56.305Z,91.83
2022-11-22T07:32:56.242Z,92.03
2022-11-22T07:33:56.241Z,92.14
2022-11-22T07:34:56.271Z,92.20
2022-11-22T07:35:56.296Z,91.99
2022-11-22T07:37:00.522Z,91.89
2022-11-22T07:37:57.267Z,91.06
2022-11-22T07:38:56.200Z,91.47
2022-11-22T07:39:56.191Z,91.68
2022-11-22T07:40:56.290Z,91.58
2022-11-22T07:41:56.166Z,91.13
2022-11-22T07:42:58.620Z,91.47
2022-11-22T07:43:56.221Z,91.68
2022-11-22T07:44:56.216Z,91.68
2022-11-22T07:45:56.113Z,91.23
2022-11-22T07:46:56.127Z,91.17
2022-11-22T07:47:56.094Z,91.47
2022-11-22T07:48:56.271Z,91.68
2022-11-22T07:49:56.251Z,91.58
2022-11-22T07:50:56.051Z,91.58
2022-11-22T07:51:56.083Z,91.47
2022-11-22T07:52:56.102Z,91.23
2022-11-22T07:53:56.199Z,91.33
2022-11-22T07:54:56.063Z,91.47
2022-11-22T07:55:56.003Z,91.47
2022-11-22T07:56:55.996Z,91.53
2022-11-22T07:57:55.983Z,91.53
2022-11-22T07:58:55.988Z,91.64
2022-11-22T07:59:56.005Z,91.44
2022-11-22T08:00:55.966Z,91.64
2022-11-22T08:01:56.074Z,91.58
2022-11-22T08:02:56.002Z,91.23
2022-11-22T08:03:55.960Z,91.23
2022-11-22T08:04:55.900Z,91.68
2022-11-22T08:05:55.895Z,91.85
2022-11-22T08:06:55.924Z,92.10
2022-11-22T08:07:56.045Z,91.47
2022-11-22T08:09:01.783Z,92.20
2022-11-22T08:09:56.904Z,91.27
2022-11-22T08:10:55.849Z,91.44
2022-11-22T08:11:55.903Z,90.51
2022-11-22T08:12:55.839Z,90.92
2022-11-22T08:13:55.808Z,91.74
2022-11-22T08:14:55.896Z,91.64
2022-11-22T08:15:59.604Z,90.67
2022-11-22T08:16:56.912Z,91.74
2022-11-22T08:17:55.871Z,90.47
2022-11-22T08:18:55.777Z,90.98
2022-11-22T08:19:55.827Z,90.88
2022-11-22T08:20:55.868Z,90.20
2022-11-22T08:21:58.631Z,90.20
2022-11-22T08:22:55.790Z,90.51
2022-11-22T08:23:55.842Z,90.16
2022-11-22T08:24:55.755Z,89.85
2022-11-22T08:25:55.719Z,89.75
2022-11-22T08:26:55.707Z,89.34
2022-11-22T08:27:55.714Z,89.54
2022-11-22T08:28:55.668Z,88.72
2022-11-22T08:29:55.697Z,89.44
2022-11-22T08:30:55.639Z,88.82
2022-11-22T08:31:55.677Z,88.51
2022-11-22T08:32:55.628Z,87.65
2022-11-22T08:33:55.600Z,88.17
2022-11-22T08:34:55.602Z,87.45
2022-11-22T08:35:55.609Z,87.65
2022-11-22T08:36:55.600Z,87.92
2022-11-22T08:37:55.624Z,87.75
2022-11-22T08:38:55.602Z,87.96
2022-11-22T08:39:55.660Z,87.34
2022-11-22T08:40:55.541Z,87.40
2022-11-22T08:41:55.661Z,88.17
2022-11-22T08:42:55.538Z,87.75
2022-11-22T08:43:55.488Z,88.06
2022-11-22T08:44:55.512Z,87.65
2022-11-22T08:45:55.479Z,87.55
2022-11-22T08:46:55.627Z,88.53
2022-11-22T08:47:55.481Z,88.27
2022-11-22T08:48:55.712Z,87.75
2022-11-22T08:49:55.430Z,87.55
2022-11-22T08:50:55.427Z,87.45
2022-11-22T08:51:55.513Z,87.40
2022-11-22T08:52:55.787Z,87.24
2022-11-22T08:53:55.435Z,87.20
2022-11-22T08:54:55.374Z,87.40
2022-11-22T08:55:55.387Z,86.68
2022-11-22T08:56:55.374Z,86.79
2022-11-22T08:57:55.383Z,86.68
2022-11-22T08:58:55.348Z,86.44
2022-11-22T08:59:55.362Z,86.54
2022-11-22T09:00:55.589Z,85.82
2022-11-22T09:01:55.390Z,85.17
2022-11-22T09:02:55.454Z,84.66
2022-11-22T09:03:55.291Z,84.61
2022-11-22T09:04:55.257Z,84.31
2022-11-22T09:09:15.069Z,83.39
2022-11-22T09:09:56.218Z,82.70
2022-11-22T09:10:55.300Z,83.01
2022-11-22T09:11:55.350Z,84.34
2022-11-22T09:12:55.203Z,83.42
2022-11-22T09:13:55.219Z,84.25
2022-11-22T09:14:55.252Z,83.42
2022-11-22T09:15:55.161Z,84.45
2022-11-22T09:16:55.606Z,84.28
2022-11-22T09:17:55.173Z,83.42
2022-11-22T09:18:55.196Z,82.91
2022-11-22T09:19:55.201Z,83.01
2022-11-22T09:20:55.125Z,83.53
2022-11-22T09:21:55.099Z,83.01
2022-11-22T09:22:55.112Z,83.32
2022-11-22T09:23:55.132Z,83.53
2022-11-22T09:24:55.089Z,83.42
2022-11-22T09:25:55.075Z,82.97
2022-11-22T09:26:55.164Z,81.57
2022-11-22T09:27:55.149Z,83.18
2022-11-22T09:28:55.068Z,83.22
2022-11-22T09:29:55.144Z,83.39
2022-11-22T09:30:54.986Z,83.53
2022-11-22T09:31:55.012Z,84.55
2022-11-22T09:32:55.058Z,84.25
2022-11-22T09:33:55.233Z,83.83
2022-11-22T09:34:55.008Z,84.59
2022-11-22T09:35:55.058Z,84.08
2022-11-22T09:36:54.960Z,84.28
2022-11-22T09:37:55.060Z,84.39
2022-11-22T09:38:54.965Z,83.40
2022-11-22T09:39:55.127Z,84.42
2022-11-22T09:40:54.874Z,84.63
2022-11-22T09:41:54.902Z,83.50
2022-11-22T09:42:54.865Z,82.68
2022-11-22T09:43:55.005Z,84.42
2022-11-22T09:44:54.824Z,84.49
2022-11-22T09:45:54.811Z,83.70
2022-11-22T09:46:54.819Z,83.91
2022-11-22T09:47:54.822Z,84.28
2022-11-22T09:48:55.142Z,83.67
2022-11-22T09:49:54.812Z,83.36
2022-11-22T09:50:55.162Z,83.46
2022-11-22T09:51:54.770Z,82.75
2022-11-22T09:52:54.781Z,83.05
2022-11-22T09:53:54.731Z,83.05
2022-11-22T09:54:54.748Z,84.28
2022-11-22T09:55:54.913Z,83.15
2022-11-22T09:56:54.765Z,83.26
2022-11-22T09:57:54.713Z,83.81
2022-11-22T09:58:54.707Z,84.49
2022-11-22T09:59:54.783Z,84.69
2022-11-22T10:00:54.763Z,83.81
2022-11-22T10:01:54.660Z,83.36
2022-11-22T10:03:00.266Z,83.56
2022-11-22T10:03:55.631Z,83.05
2022-11-22T10:04:54.655Z,83.46
2022-11-22T10:05:54.620Z,83.05
2022-11-22T10:06:54.611Z,83.46
2022-11-22T10:07:54.672Z,83.77
2022-11-22T10:08:54.586Z,83.98
2022-11-22T10:09:54.566Z,82.75
2022-11-22T10:10:54.571Z,82.84
2022-11-22T10:11:54.577Z,83.46
2022-11-22T10:12:54.598Z,83.56
2022-11-22T10:13:54.520Z,82.78
2022-11-22T10:14:54.503Z,84.49
2022-11-22T10:15:54.613Z,83.50
2022-11-22T10:16:54.509Z,83.29
2022-11-22T10:17:54.487Z,83.09
2022-11-22T10:18:54.492Z,84.32
2022-11-22T10:19:54.506Z,84.53
2022-11-22T10:20:54.510Z,84.42
2022-11-22T10:21:54.446Z,84.49
2022-11-22T10:22:54.482Z,83.19
2022-11-22T10:23:54.510Z,84.49
2022-11-22T10:24:54.403Z,82.95
2022-11-22T10:25:54.425Z,82.89
2022-11-22T10:26:54.436Z,83.15
2022-11-22T10:27:57.608Z,83.05
2022-11-22T10:28:55.359Z,83.05
2022-11-22T10:29:54.371Z,82.95
2022-11-22T10:30:54.380Z,84.25
2022-11-22T10:31:54.499Z,83.32
2022-11-22T10:32:54.378Z,82.81
2022-11-22T10:33:54.327Z,82.91
2022-11-22T10:34:54.325Z,82.81
2022-11-22T10:35:54.359Z,82.60
2022-11-22T10:36:54.298Z,83.42
2022-11-22T10:37:54.292Z,82.70
2022-11-22T10:38:54.268Z,81.78
2022-11-22T10:39:54.235Z,81.57
2022-11-22T10:40:54.221Z,81.57
2022-11-22T10:41:54.300Z,82.50
2022-11-22T10:42:54.213Z,81.27
2022-11-22T10:43:54.240Z,82.91
2022-11-22T10:44:54.203Z,82.40
2022-11-22T10:45:54.204Z,82.40
2022-11-22T10:46:57.002Z,82.50
2022-11-22T10:47:54.310Z,82.29
2022-11-22T10:48:54.196Z,81.57
2022-11-22T10:49:54.159Z,82.87
2022-11-22T10:50:54.160Z,82.87
2022-11-22T10:51:54.110Z,82.67
2022-11-22T10:52:54.594Z,82.67
2022-11-22T10:53:56.549Z,81.74
2022-11-22T10:54:55.109Z,81.64
2022-11-22T10:55:54.068Z,81.54
2022-11-22T10:56:54.050Z,81.64
2022-11-22T10:57:54.090Z,82.15
2022-11-22T10:58:54.073Z,82.56
2022-11-22T10:59:54.030Z,82.46
2022-11-22T11:00:54.068Z,81.54
2022-11-22T11:01:54.000Z,80.62
2022-11-22T11:02:54.024Z,81.54
2022-11-22T11:03:54.134Z,80.51
2022-11-22T11:04:54.070Z,81.13
2022-11-22T11:06:22.343Z,80.92
2022-11-22T11:08:04.052Z,81.13
2022-11-22T11:09:48.040Z,81.23
2022-11-22T11:10:10.986Z,81.23
2022-11-22T11:10:54.992Z,80.21
2022-11-22T11:11:53.903Z,81.29
2022-11-22T11:12:53.934Z,80.54
2022-11-22T11:13:53.878Z,79.14
2022-11-22T11:14:53.873Z,79.55
2022-11-22T11:15:56.206Z,80.54
2022-11-22T11:16:53.883Z,80.37
2022-11-22T11:17:53.897Z,79.55
2022-11-22T11:18:53.894Z,80.17
2022-11-22T11:19:53.928Z,80.17
2022-11-22T11:20:53.791Z,81.36
2022-11-22T11:21:53.794Z,79.93
2022-11-22T11:23:54.795Z,79.72
2022-11-22T11:24:53.779Z,80.03
2022-11-22T11:25:53.776Z,78.90
2022-11-22T11:26:53.764Z,78.59
2022-11-22T11:27:53.792Z,78.59
2022-11-22T11:28:53.708Z,78.45
2022-11-22T11:29:53.760Z,78.49
2022-11-22T11:30:53.710Z,79.52
2022-11-22T11:31:53.698Z,78.49
2022-11-22T11:32:53.752Z,78.08
2022-11-22T11:33:53.665Z,78.90
2022-11-22T11:34:53.711Z,79.27
2022-11-22T11:35:53.752Z,78.80
2022-11-22T11:36:53.638Z,79.68
2022-11-22T11:37:53.653Z,79.31
2022-11-22T11:38:53.628Z,78.49
2022-11-22T11:39:53.594Z,78.90
2022-11-22T11:40:53.603Z,79.07
2022-11-22T11:41:53.601Z,78.97
2022-11-22T11:42:53.588Z,79.11
2022-11-22T11:43:53.604Z,79.79
2022-11-22T11:44:53.569Z,79.79
2022-11-22T11:45:53.532Z,78.90
2022-11-22T11:46:53.537Z,77.87
2022-11-22T11:47:53.550Z,77.98
2022-11-22T11:48:53.571Z,78.70
2022-11-22T11:49:53.562Z,78.59
2022-11-22T11:50:53.478Z,78.02
2022-11-22T11:51:53.597Z,78.42
2022-11-22T11:52:53.521Z,79.35
2022-11-22T11:53:53.495Z,79.86
2022-11-22T11:54:53.434Z,79.66
2022-11-22T11:55:53.432Z,78.83
2022-11-22T11:56:53.420Z,79.35
2022-11-22T11:57:53.437Z,79.35
2022-11-22T11:58:53.405Z,79.35
2022-11-22T11:59:53.377Z,79.45
2022-11-22T12:00:53.367Z,80.47
2022-11-22T12:01:53.437Z,79.96
2022-11-22T12:02:53.410Z,79.75
2022-11-22T12:03:53.349Z,80.68
2022-11-22T12:04:53.356Z,78.94
2022-11-22T12:05:53.351Z,81.09
2022-11-22T12:06:53.338Z,80.17
2022-11-22T12:07:53.635Z,80.00
2022-11-22T12:08:53.292Z,81.50
2022-11-22T12:09:53.376Z,80.68
2022-11-22T12:10:53.310Z,80.17
2022-11-22T12:11:53.279Z,80.47
2022-11-22T12:12:53.286Z,80.17
2022-11-22T12:15:10.687Z,80.07
2022-11-22T12:15:54.215Z,79.75
2022-11-22T12:16:53.268Z,80.17
2022-11-22T12:17:53.221Z,80.74
2022-11-22T12:18:53.228Z,81.05
2022-11-22T12:19:53.185Z,80.37
2022-11-22T12:20:53.172Z,81.36
2022-11-22T12:21:53.211Z,80.95
2022-11-22T12:22:53.220Z,80.03
2022-11-22T12:23:53.251Z,79.72
2022-11-22T12:25:16.995Z,79.52
2022-11-22T12:25:54.090Z,79.52
2022-11-22T12:26:53.198Z,79.41
2022-11-22T12:27:53.112Z,81.15
2022-11-22T12:28:53.138Z,79.86
2022-11-22T12:29:53.078Z,79.82
2022-11-22T12:30:53.069Z,80.03
2022-11-22T12:31:53.074Z,79.21
2022-11-22T12:32:53.039Z,78.08
2022-11-22T12:33:53.087Z,78.70
2022-11-22T12:34:53.041Z,78.90
2022-11-22T12:35:52.989Z,78.19
2022-11-22T12:36:52.997Z,78.28
2022-11-22T12:37:53.015Z,78.90
2022-11-22T12:38:53.034Z,78.74
2022-11-22T12:39:53.060Z,78.49
2022-11-22T12:40:52.972Z,78.08
2022-11-22T12:41:52.942Z,78.28
2022-11-22T12:42:52.997Z,77.77
2022-11-22T12:43:52.949Z,77.47
2022-11-22T12:44:52.909Z,76.72
2022-11-22T12:45:52.880Z,77.06
2022-11-22T12:46:52.905Z,77.64
2022-11-22T12:47:52.905Z,77.23
2022-11-22T12:52:00.580Z,77.84
2022-11-22T12:52:51.621Z,78.66
2022-11-22T12:53:52.570Z,77.64
2022-11-22T12:54:55.001Z,77.23
2022-11-22T12:55:52.930Z,77.53
2022-11-22T12:56:51.576Z,78.35
2022-11-22T12:57:52.497Z,77.64
2022-11-22T12:59:04.943Z,77.64
2022-11-22T12:59:56.171Z,78.15
2022-11-22T13:01:02.095Z,76.92